Decoded Metar for LFML (MARSEILLE in FRANCE) (IATA:MRS) | Meteo·Mobile Aviation Weather
aviador You're here:

LFML Decoded Metar

MARSEILLE in FRANCE
Report Time2019-07-21 18:00:00
UTC Time2019-07-21 18:24:27
Flight Rules vfr VFR
Wind260° at 11 kt
W.Decomp.*RWY 31: 6.9 kt HW 8.5 kt LCW
Visibility9999 m
Phenomena:N/A
Clouds:N/A
Expected CloudBase > 4,400 ft AGL from Temp-Dew spread
CeilingNone
Temp28°C (ISA +13)
Dew Point17°C (51% RH)
Heat Index28.5°C
AAT26.4°C
QNH1019 hPa
Density Alt1,699 ft
Elevation118 ft
Report Wrong Elevation
Raw Report
LFML 211800Z AUTO 26011KT CAVOK 28/17 Q1019 NOSIG=

Extra information for LFML:More info

Metar Taf Metar & Taf Last 4 Metars F.Rules Stats Wind Profile Meteogram Temp Stats Airport Information Weather charts Add Link Nearby VenuesMetar ALERT Operation Metar Decoded Social comments